WetterOnline ( http://www.wetteronline.de )

Wetter aktuell Schwelm

Aktuelles Wetter: Essen (161m)

6-stündlich | Neueste Meldungen
Ortszeit Temperatur Wetter
So, 25.02. 13:00 -1.8° C leicht bewölkt
So, 25.02. 7:00 -5.9° C wolkenlos
So, 25.02. 1:00 -3.2° C wolkenlos
Sa, 24.02. 19:00 -0.3° C wolkenlos
Sa, 24.02. 13:00 1.2° C fast wolkenlos
Sa, 24.02. 7:00 -4.5° C wolkenlos
Sa, 24.02. 1:00 -3.1° C wolkenlos
Fr, 23.02. 19:00 0.1° C wolkenlos
Ortszeit Temperatur Wetter
So, 25.02. 14:30 -1.2° C wolkig
So, 25.02. 14:10 -1.4° C bewölkt
So, 25.02. 14:00 -1.3° C wolkig
So, 25.02. 13:50 -1.3° C bewölkt
So, 25.02. 13:40 -1.7° C bedeckt
So, 25.02. 13:30 -1.7° C bedeckt
So, 25.02. 13:00 -1.8° C leicht bewölkt
So, 25.02. 12:30 -2.4° C leicht bewölkt
So, 25.02. 12:00 -2.9° C wolkig
So, 25.02. 11:30 -2.8° C bedeckt
Ortszeit Relative Feuchte Sichtweite
So, 25.02. 13:00 41% 23 km
So, 25.02. 7:00 62% 30 km
So, 25.02. 1:00 56% 50 km
Sa, 24.02. 19:00 50% 45 km
Sa, 24.02. 13:00 48% 21 km
Sa, 24.02. 7:00 60% 11 km
Sa, 24.02. 1:00 58% 15 km
Fr, 23.02. 19:00 53% 22 km
Ortszeit Relative Feuchte Sichtweite
So, 25.02. 14:30 35% 24 km
So, 25.02. 14:10 36% -
So, 25.02. 14:00 37% 25 km
So, 25.02. 13:50 37% -
So, 25.02. 13:40 37% -
So, 25.02. 13:30 40% 29 km
So, 25.02. 13:00 41% 23 km
So, 25.02. 12:30 42% 29 km
So, 25.02. 12:00 44% 24 km
So, 25.02. 11:30 47% 27 km
Ortszeit Niederschlagsmenge Niederschlagsart
So, 25.02. 13:00 0.0 l/m2 in 6 Std. -
So, 25.02. 7:00 0.0 l/m2 in 12 Std. -
So, 25.02. 1:00 0.0 l/m2 in 6 Std. -
Sa, 24.02. 19:00 0.0 l/m2 in 12 Std. -
Sa, 24.02. 13:00 0.0 l/m2 in 6 Std. -
Sa, 24.02. 7:00 0.0 l/m2 in 12 Std. -
Sa, 24.02. 1:00 0.0 l/m2 in 6 Std. -
Fr, 23.02. 19:00 0.0 l/m2 in 12 Std. -
Ortszeit Niederschlagsmenge Niederschlagsart
So, 25.02. 14:30 0.0 l/m2 in 1 Std. -
So, 25.02. 14:10 keine Meldung -
So, 25.02. 14:00 0.0 l/m2 in 1 Std. -
So, 25.02. 13:50 keine Meldung -
So, 25.02. 13:40 keine Meldung -
So, 25.02. 13:30 0.0 l/m2 in 1 Std. -
So, 25.02. 13:00 0.0 l/m2 in 1 Std. -
So, 25.02. 12:30 0.0 l/m2 in 1 Std. -
So, 25.02. 12:00 0.0 l/m2 in 1 Std. -
So, 25.02. 11:30 0.0 l/m2 in 1 Std. -
Ortszeit Stärke Spitze Richtung
km/h Bft. km/h Grad Sektor
So, 25.02. 13:00 19 3 35 40° NO
So, 25.02. 7:00 11 2 40 70° O
So, 25.02. 1:00 14 3 47 70° O
Sa, 24.02. 19:00 18 3 50 70° O
Sa, 24.02. 13:00 24 4 43 50° NO
Sa, 24.02. 7:00 17 3 44 60° NO
Sa, 24.02. 1:00 19 3 43 70° O
Fr, 23.02. 19:00 17 3 46 60° NO
Ortszeit Stärke Spitze Richtung
km/h Bft. km/h Grad Sektor
So, 25.02. 14:30 22 4 43 40° NO
So, 25.02. 14:10 22 4 - 50° NO
So, 25.02. 14:00 18 3 36 40° NO
So, 25.02. 13:50 18 3 - 40° NO
So, 25.02. 13:40 20 4 - 60° NO
So, 25.02. 13:30 18 3 36 40° NO
So, 25.02. 13:00 19 3 35 40° NO
So, 25.02. 12:30 17 3 35 70° O
So, 25.02. 12:00 18 3 36 60° NO
So, 25.02. 11:30 14 3 32 60° NO
Ortszeit Untergrenze Bedeckung Gattung
total tief tief mittel hoch
So, 25.02. 13:00 4200 m 4/8 5/8 - - -
So, 25.02. 7:00 - 0/8 0/8 - - -
So, 25.02. 1:00 - 0/8 0/8 - - -
Sa, 24.02. 19:00 - 0/8 0/8 - - -
Sa, 24.02. 13:00 9000 m 1/8 0/8 - - -
Sa, 24.02. 7:00 - 0/8 0/8 - - -
Sa, 24.02. 1:00 - 0/8 0/8 - - -
Fr, 23.02. 19:00 - 0/8 0/8 - - -
Ortszeit Bedeckungsgrad in Achtel und Wolkenuntergrenze
So, 25.02. 14:30 4(2700m) 6(4200m)
So, 25.02. 14:10 7(2700m) 7(3300m)
So, 25.02. 14:00 7(3300m) 7(3300m)
So, 25.02. 13:50 7(3300m)
So, 25.02. 13:40 9 9 9
So, 25.02. 13:30 9 9 9
So, 25.02. 13:00 4(4200m) 5(4200m)
So, 25.02. 12:30 2(3300m) 3(3900m)
So, 25.02. 12:00 8(3000m) 8(3900m)
So, 25.02. 11:30 7(3300m) 8(4200m) 8(4200m)
Ortszeit Luftdruck NN (hPa) Tendenz (hPa in 3 Std.)
So, 25.02. 13:00 1030 - 0,8
So, 25.02. 7:00 1030 + 1,1
So, 25.02. 1:00 1028 + 0,4
Sa, 24.02. 19:00 1027 + 0,9
Sa, 24.02. 13:00 1026 + 0,6
Sa, 24.02. 7:00 1025 + 1,4
Sa, 24.02. 1:00 1023 + 0,6
Fr, 23.02. 19:00 1022 + 0,3
Ortszeit Luftdruck NN (hPa) Tendenz (hPa in 3 Std.)
So, 25.02. 14:30 1029 - 1,5
So, 25.02. 14:10 1029 keine Meldung
So, 25.02. 14:00 1029 - 1,2
So, 25.02. 13:50 1029 keine Meldung
So, 25.02. 13:40 1030 keine Meldung
So, 25.02. 13:30 1030 - 1,1
So, 25.02. 13:00 1030 - 0,8
So, 25.02. 12:30 1030 - 0,4
So, 25.02. 12:00 1031 + 0,1
So, 25.02. 11:30 1031 + 0,2
Ortszeit Schneehöhe (cm)
So, 25.02. 13:00 0
So, 25.02. 7:00 0
So, 25.02. 1:00 0
Sa, 24.02. 19:00 0
Sa, 24.02. 13:00 0
Sa, 24.02. 7:00 0
Sa, 24.02. 1:00 0
Fr, 23.02. 19:00 0
Ortszeit Schneehöhe (cm)
So, 25.02. 14:30 0
So, 25.02. 14:10 0
So, 25.02. 14:00 0
So, 25.02. 13:50 0
So, 25.02. 13:40 0
So, 25.02. 13:30 0
So, 25.02. 13:00 0
So, 25.02. 12:30 0
So, 25.02. 12:00 0
So, 25.02. 11:30 0
Link zu dieser Seite / Seite empfehlen

Das Wetter in ...